メインページ
METAR-TAF:

METAR-TAF

空港 :

東京 / 成田国際空港, 日本

成田国際空港

緯度: 35-46N, 経度: 140-23E, 海抜: 41m

現時点の気象観測

当レポートは23分前の23:30(UTC)に作成
変向風 2kt
気温 2°C
湿度 44%
気圧 1022 hPa
視程10km以上
高度3000ftの雲はほとんどない
千切れ雲あり

METAR: RJAA 182330Z VRB02KT 9999 FEW030 BKN/// 02/M09 Q1022 NOSIG

時間: 08:53 (23:53 UTC)

予報

当レポートは48分前の23:05(UTC)に作成
予報は19日の 00時(UTC)から 20日の 06時(UTC)まで有効
北西の風 4kt
視程10km以上
高度3000ftの雲はほとんどない
19日の 06時(UTC)から 19日の 08時(UTC)まで徐々に
東/南東の風 5kt
19日の 12時(UTC)から 19日の 15時(UTC)まで徐々に
北/北西の風 5kt

TAF: RJAA 182305Z 1900/2006 31004KT 9999 FEW030 BECMG 1906/1908 12005KT BECMG 1912/1915 34005KT

4,000以上の空港の気象観測と天気予報(METAR報とTAF報)

利用可能な観測所は地図上に黄色い丸と赤い丸で示す。

丸の上にカーソルを重ねると観測所名を参照できる。

次にクリックすると気象観測と天気予報を参照できる。

マップの切り替え:黒色「×」印の緑ボタンをクリックして拡大、「-」印の緑ボタンをクリックして縮小、緑色の三角印をクリックして隣りの地図に切り替え


METAR-TAF: